createdAt,value
2023-01-01T00:00:52.611Z,104.10
2023-01-01T00:04:25.275Z,109.90
2023-01-01T00:10:52.409Z,131.13
2023-01-01T00:17:24.968Z,142.38
2023-01-01T00:20:26.651Z,151.27
2023-01-01T00:23:35.295Z,145.07
2023-01-01T00:45:50.566Z,115.80
2023-01-01T00:48:58.663Z,116.32
2023-01-01T00:52:41.956Z,119.70
2023-01-01T00:55:42.106Z,94.78
2023-01-01T00:58:42.842Z,76.28
2023-01-01T01:01:45.720Z,59.08
2023-01-01T01:04:43.158Z,42.72
2023-01-01T01:07:50.723Z,43.03
2023-01-01T01:17:40.793Z,38.65
2023-01-01T01:28:52.254Z,56.78
2023-01-01T01:31:47.102Z,49.83
2023-01-01T01:34:47.869Z,45.22
2023-01-01T01:37:47.380Z,45.38
2023-01-01T01:41:29.022Z,42.67
2023-01-01T01:45:11.078Z,43.13
2023-01-01T01:48:43.477Z,37.22
2023-01-01T02:03:27.571Z,33.53
2023-01-01T02:06:21.734Z,37.80
2023-01-01T02:09:28.052Z,30.63
2023-01-01T02:12:24.399Z,32.50
2023-01-01T02:15:53.200Z,32.40
2023-01-01T02:19:16.349Z,29.33
2023-01-01T02:32:48.787Z,25.70
2023-01-01T02:40:07.130Z,26.25
2023-01-01T02:43:37.005Z,21.75
2023-01-01T02:46:41.469Z,24.63
2023-01-01T02:49:36.343Z,24.85
2023-01-01T02:52:39.435Z,22.10
2023-01-01T02:56:20.352Z,24.83
2023-01-01T02:59:53.319Z,25.77
2023-01-01T03:02:52.656Z,25.05
2023-01-01T03:06:23.280Z,25.50
2023-01-01T03:09:50.834Z,23.73
2023-01-01T03:13:11.543Z,23.75
2023-01-01T03:20:27.654Z,26.00
2023-01-01T03:26:35.460Z,22.60
2023-01-01T03:29:35.492Z,21.10
2023-01-01T03:32:55.668Z,24.35
2023-01-01T03:35:49.577Z,22.00
2023-01-01T03:38:54.668Z,28.85
2023-01-01T03:41:55.175Z,28.08
2023-01-01T03:45:16.290Z,25.15
2023-01-01T03:48:14.175Z,23.98
2023-01-01T03:52:48.369Z,26.02
2023-01-01T03:59:24.421Z,26.55
2023-01-01T04:02:35.438Z,26.58
2023-01-01T04:05:47.518Z,26.17
2023-01-01T04:08:35.999Z,27.17
2023-01-01T04:11:45.385Z,32.53
2023-01-01T04:18:00.402Z,28.77
2023-01-01T04:20:59.833Z,27.88
2023-01-01T04:23:52.023Z,23.48
2023-01-01T04:26:44.740Z,24.15
2023-01-01T04:29:34.146Z,27.05
2023-01-01T04:32:21.011Z,24.17
2023-01-01T04:35:19.107Z,27.90
2023-01-01T04:38:08.897Z,22.65
2023-01-01T04:41:04.757Z,22.38
2023-01-01T04:44:07.717Z,18.90
2023-01-01T04:47:15.465Z,21.38
2023-01-01T04:50:19.946Z,20.73
2023-01-01T04:53:07.079Z,19.77
2023-01-01T04:55:54.004Z,18.85
2023-01-01T04:58:56.371Z,21.50
2023-01-01T05:01:53.144Z,19.95
2023-01-01T05:04:47.619Z,19.00
2023-01-01T05:07:47.098Z,14.70
2023-01-01T05:10:39.711Z,14.90
2023-01-01T05:13:44.054Z,14.88
2023-01-01T05:20:25.061Z,15.95
2023-01-01T05:24:46.510Z,22.70
2023-01-01T05:27:48.809Z,23.48
2023-01-01T05:30:43.470Z,25.83
2023-01-01T05:33:47.810Z,29.85
2023-01-01T05:36:45.827Z,31.13
2023-01-01T05:39:44.755Z,33.40
2023-01-01T05:42:35.028Z,32.15
2023-01-01T05:49:55.874Z,27.58
2023-01-01T05:53:14.312Z,32.92
2023-01-01T05:56:19.935Z,28.33
2023-01-01T06:00:14.765Z,25.17
2023-01-01T06:14:30.263Z,19.33
2023-01-01T06:17:29.194Z,18.52
2023-01-01T06:20:21.248Z,22.50
2023-01-01T06:23:08.190Z,23.08
2023-01-01T06:26:00.683Z,27.17
2023-01-01T06:28:48.369Z,29.25
2023-01-01T06:31:40.773Z,25.27
2023-01-01T06:34:30.941Z,26.80
2023-01-01T06:37:22.159Z,24.15
2023-01-01T06:40:17.659Z,23.33
2023-01-01T06:46:51.010Z,21.58
2023-01-01T06:49:37.726Z,23.25
2023-01-01T06:52:24.514Z,23.20
2023-01-01T06:55:11.214Z,29.13
2023-01-01T06:57:59.126Z,28.10
2023-01-01T07:03:35.105Z,33.28
2023-01-01T07:06:22.903Z,30.70
2023-01-01T07:09:11.097Z,32.63
2023-01-01T07:11:57.789Z,32.88
2023-01-01T07:14:44.523Z,30.88
2023-01-01T07:17:31.325Z,30.38
2023-01-01T07:20:18.053Z,31.42
2023-01-01T07:23:04.767Z,30.77
2023-01-01T07:25:52.905Z,35.22
2023-01-01T07:28:39.616Z,37.97
2023-01-01T07:31:26.629Z,41.67
2023-01-01T07:34:16.146Z,34.13
2023-01-01T07:37:02.880Z,38.78
2023-01-01T07:39:49.589Z,35.85
2023-01-01T07:42:36.293Z,38.60
2023-01-01T07:45:23.045Z,46.40
2023-01-01T07:48:14.925Z,42.88
2023-01-01T07:51:01.793Z,36.30
2023-01-01T07:53:48.591Z,36.35
2023-01-01T07:56:36.168Z,37.33
2023-01-01T07:59:22.938Z,32.08
2023-01-01T08:02:12.784Z,34.58
2023-01-01T08:04:59.572Z,28.63
2023-01-01T08:07:48.237Z,28.63
2023-01-01T08:10:34.979Z,32.40
2023-01-01T08:13:21.676Z,32.67
2023-01-01T08:16:08.905Z,32.35
2023-01-01T08:18:55.725Z,29.95
2023-01-01T08:21:42.989Z,27.45
2023-01-01T08:24:29.764Z,25.60
2023-01-01T08:27:17.332Z,27.38
2023-01-01T08:30:04.541Z,28.58
2023-01-01T08:32:51.280Z,35.83
2023-01-01T08:35:41.639Z,29.98
2023-01-01T08:38:28.411Z,31.50
2023-01-01T08:41:15.176Z,26.05
2023-01-01T08:44:01.899Z,32.33
2023-01-01T08:46:48.645Z,28.95
2023-01-01T08:49:35.368Z,31.52
2023-01-01T08:52:22.392Z,33.78
2023-01-01T08:55:09.705Z,33.83
2023-01-01T08:57:56.375Z,40.55
2023-01-01T09:00:43.149Z,44.65
2023-01-01T09:03:30.034Z,49.25
2023-01-01T09:06:16.863Z,45.80
2023-01-01T09:09:03.589Z,51.13
2023-01-01T09:11:52.439Z,65.55
2023-01-01T09:14:39.150Z,58.00
2023-01-01T09:17:25.929Z,55.70
2023-01-01T09:20:12.634Z,113.93
2023-01-01T09:23:05.615Z,89.22
2023-01-01T09:25:52.757Z,83.45
2023-01-01T09:28:41.056Z,82.70
2023-01-01T09:31:27.851Z,153.18
2023-01-01T09:34:15.221Z,76.68
2023-01-01T09:37:01.950Z,120.90
2023-01-01T09:39:48.685Z,82.65
2023-01-01T09:42:53.764Z,99.25
2023-01-01T09:46:00.596Z,71.93
2023-01-01T09:48:58.865Z,124.93
2023-01-01T09:51:57.904Z,47.17
2023-01-01T09:54:51.481Z,202.77
2023-01-01T09:57:39.011Z,105.10
2023-01-01T10:00:26.824Z,203.35
2023-01-01T10:03:29.350Z,136.23
2023-01-01T10:06:21.249Z,209.75
2023-01-01T10:09:22.718Z,105.97
2023-01-01T10:12:21.167Z,178.38
2023-01-01T10:18:35.943Z,76.65
2023-01-01T10:21:46.565Z,83.70
2023-01-01T10:24:43.140Z,59.42
2023-01-01T10:27:35.886Z,52.13
2023-01-01T10:30:24.160Z,1999.90
2023-01-01T10:33:15.042Z,1999.90
2023-01-01T10:36:02.042Z,490.60
2023-01-01T10:38:51.060Z,865.50
2023-01-01T10:41:37.834Z,50.40
2023-01-01T10:44:31.995Z,27.85
2023-01-01T10:47:28.570Z,17.20
2023-01-01T10:50:17.029Z,9.90
2023-01-01T10:53:03.860Z,6.60
2023-01-01T10:55:57.997Z,4.85
2023-01-01T10:58:54.719Z,4.82
2023-01-01T11:01:43.168Z,4.03
2023-01-01T11:04:29.957Z,4.28
2023-01-01T11:07:32.014Z,5.80
2023-01-01T11:10:24.017Z,4.88
2023-01-01T11:13:22.032Z,3.53
2023-01-01T11:16:11.549Z,3.03
2023-01-01T11:19:06.719Z,4.07
2023-01-01T11:21:53.811Z,3.50
2023-01-01T11:24:40.624Z,3.97
2023-01-01T11:30:23.192Z,3.67
2023-01-01T11:33:16.508Z,3.63
2023-01-01T11:36:04.564Z,3.50
2023-01-01T11:39:22.405Z,2.85
2023-01-01T11:42:09.234Z,3.88
2023-01-01T11:47:50.644Z,3.78
2023-01-01T11:50:40.898Z,5.07
2023-01-01T11:53:31.772Z,6.75
2023-01-01T11:56:21.073Z,5.88
2023-01-01T11:59:23.003Z,4.55
2023-01-01T12:02:15.546Z,4.47
2023-01-01T12:05:31.045Z,5.45
2023-01-01T12:08:40.122Z,5.38
2023-01-01T12:11:54.052Z,4.07
2023-01-01T12:14:49.836Z,4.97
2023-01-01T12:17:59.016Z,4.25
2023-01-01T12:20:57.344Z,4.70
2023-01-01T12:23:45.999Z,5.50
2023-01-01T12:26:53.217Z,2.25
2023-01-01T12:30:04.014Z,3.20
2023-01-01T12:33:20.107Z,2.95
2023-01-01T12:36:40.992Z,3.83
2023-01-01T12:39:30.728Z,2.75
2023-01-01T12:42:22.011Z,3.58
2023-01-01T12:45:37.674Z,2.58
2023-01-01T12:48:48.018Z,5.47
2023-01-01T12:52:07.086Z,4.65
2023-01-01T12:55:24.036Z,4.95
2023-01-01T12:58:27.056Z,4.60
2023-01-01T13:01:28.301Z,4.03
2023-01-01T13:04:20.486Z,5.78
2023-01-01T13:07:14.035Z,5.43
2023-01-01T13:10:27.632Z,6.15
2023-01-01T13:13:17.001Z,5.90
2023-01-01T13:16:03.968Z,4.85
2023-01-01T13:18:52.756Z,6.85
2023-01-01T13:21:41.938Z,5.13
2023-01-01T13:24:30.080Z,6.43
2023-01-01T13:27:56.076Z,5.18
2023-01-01T13:30:44.038Z,4.95
2023-01-01T13:33:33.268Z,4.95
2023-01-01T13:36:23.046Z,5.90
2023-01-01T13:39:09.825Z,8.32
2023-01-01T13:41:58.039Z,5.40
2023-01-01T13:44:44.773Z,4.43
2023-01-01T13:47:52.965Z,4.88
2023-01-01T13:50:58.366Z,4.90
2023-01-01T13:54:26.540Z,6.93
2023-01-01T13:57:44.741Z,5.63
2023-01-01T14:00:38.077Z,5.55
2023-01-01T14:03:26.517Z,5.88
2023-01-01T14:06:44.975Z,5.95
2023-01-01T14:09:31.731Z,5.53
2023-01-01T14:12:21.975Z,8.00
2023-01-01T14:15:27.019Z,7.07
2023-01-01T14:18:19.000Z,6.05
2023-01-01T14:21:17.270Z,6.15
2023-01-01T14:24:08.013Z,7.05
2023-01-01T14:26:55.640Z,3.88
2023-01-01T14:29:46.528Z,6.15
2023-01-01T14:32:33.474Z,5.80
2023-01-01T14:35:20.373Z,6.43
2023-01-01T14:38:24.984Z,8.87
2023-01-01T14:41:23.051Z,7.22
2023-01-01T14:44:16.455Z,7.05
2023-01-01T14:47:06.030Z,6.97
2023-01-01T14:49:53.648Z,9.02
2023-01-01T14:52:42.136Z,5.90
2023-01-01T14:55:34.359Z,5.85
2023-01-01T14:58:25.993Z,4.28
2023-01-01T15:01:18.128Z,7.47
2023-01-01T15:04:21.043Z,7.63
2023-01-01T15:07:20.835Z,5.15
2023-01-01T15:10:14.979Z,6.75
2023-01-01T15:13:06.422Z,5.38
2023-01-01T15:15:57.007Z,5.85
2023-01-01T15:18:50.487Z,6.70
2023-01-01T15:21:39.966Z,8.15
2023-01-01T15:24:29.134Z,4.55
2023-01-01T15:27:31.999Z,7.03
2023-01-01T15:30:36.275Z,11.68
2023-01-01T15:33:23.642Z,9.75
2023-01-01T15:36:10.371Z,10.00
2023-01-01T15:38:57.817Z,8.02
2023-01-01T15:41:47.460Z,14.15
2023-01-01T15:44:36.523Z,8.38
2023-01-01T15:47:26.557Z,8.68
2023-01-01T15:50:30.692Z,11.38
2023-01-01T15:53:24.111Z,10.05
2023-01-01T15:56:13.511Z,12.20
2023-01-01T15:59:09.222Z,14.90
2023-01-01T16:02:15.427Z,14.73
2023-01-01T16:05:02.582Z,10.20
2023-01-01T16:08:02.359Z,8.40
2023-01-01T16:10:49.968Z,10.45
2023-01-01T16:13:36.926Z,9.73
2023-01-01T16:16:29.024Z,10.03
2023-01-01T16:19:18.474Z,9.20
2023-01-01T16:22:05.385Z,9.90
2023-01-01T16:24:52.206Z,10.37
2023-01-01T16:27:38.912Z,21.65
2023-01-01T16:30:26.969Z,21.60
2023-01-01T16:33:18.887Z,19.23
2023-01-01T16:36:09.010Z,27.75
2023-01-01T16:38:56.773Z,32.40
2023-01-01T16:41:44.385Z,29.40
2023-01-01T16:44:31.121Z,20.75
2023-01-01T16:47:17.948Z,20.20
2023-01-01T16:50:04.989Z,18.70
2023-01-01T16:52:51.734Z,16.23
2023-01-01T16:55:38.623Z,18.95
2023-01-01T16:59:00.266Z,19.77
2023-01-01T17:01:32.561Z,28.13
2023-01-01T17:04:19.534Z,32.30
2023-01-01T17:07:06.313Z,27.27
2023-01-01T17:09:53.068Z,24.00
2023-01-01T17:12:39.842Z,23.02
2023-01-01T17:15:26.595Z,24.70
2023-01-01T17:18:13.562Z,25.77
2023-01-01T17:21:05.832Z,29.90
2023-01-01T17:23:53.681Z,25.50
2023-01-01T17:29:27.128Z,18.40
2023-01-01T17:32:15.451Z,16.98
2023-01-01T17:35:02.388Z,14.10
2023-01-01T17:37:49.462Z,13.27
2023-01-01T17:40:37.144Z,17.98
2023-01-01T17:46:17.276Z,12.15
2023-01-01T17:49:04.954Z,12.32
2023-01-01T17:51:51.747Z,12.02
2023-01-01T17:54:38.495Z,10.82
2023-01-01T17:57:25.256Z,10.00
2023-01-01T18:00:12.504Z,9.45
2023-01-01T18:02:59.341Z,10.05
2023-01-01T18:05:46.192Z,12.20
2023-01-01T18:08:33.159Z,11.48
2023-01-01T18:11:19.895Z,12.83
2023-01-01T18:14:06.732Z,13.23
2023-01-01T18:16:53.461Z,13.02
2023-01-01T18:19:40.164Z,10.73
2023-01-01T18:22:26.895Z,10.63
2023-01-01T18:25:13.577Z,10.45
2023-01-01T18:28:00.293Z,11.07
2023-01-01T18:30:46.988Z,10.07
2023-01-01T18:33:34.339Z,12.10
2023-01-01T18:36:27.458Z,9.50
2023-01-01T18:39:16.403Z,8.93
2023-01-01T18:42:17.264Z,8.07
2023-01-01T18:45:25.694Z,7.10
2023-01-01T18:48:15.577Z,6.47
2023-01-01T18:51:02.716Z,17.90
2023-01-01T18:53:51.716Z,30.52
2023-01-01T18:56:39.908Z,27.35
2023-01-01T18:59:26.671Z,30.70
2023-01-01T19:02:21.009Z,26.27
2023-01-01T19:05:15.941Z,12.25
2023-01-01T19:08:09.928Z,13.85
2023-01-01T19:11:02.969Z,16.30
2023-01-01T19:14:00.864Z,13.25
2023-01-01T19:16:50.112Z,11.02
2023-01-01T19:19:41.862Z,10.70
2023-01-01T19:22:30.768Z,11.05
2023-01-01T19:25:37.893Z,8.75
2023-01-01T19:28:31.280Z,8.32
2023-01-01T19:31:19.916Z,7.28
2023-01-01T19:34:06.730Z,5.32
2023-01-01T19:36:54.902Z,5.55
2023-01-01T19:39:42.419Z,6.00
2023-01-01T19:42:30.872Z,5.93
2023-01-01T19:45:17.738Z,6.25
2023-01-01T19:48:05.895Z,5.10
2023-01-01T19:50:52.599Z,5.93
2023-01-01T19:53:40.906Z,5.55
2023-01-01T20:10:02.344Z,5.65
2023-01-01T20:18:40.218Z,5.38
2023-01-01T21:22:52.493Z,6.18
2023-01-01T22:41:02.595Z,6.72
2023-01-01T22:48:30.697Z,6.30
2023-01-01T23:06:55.806Z,4.60
2023-01-01T23:09:42.981Z,5.60
2023-01-01T23:12:29.912Z,4.93
2023-01-01T23:15:35.208Z,6.73
2023-01-01T23:18:21.970Z,7.28
2023-01-01T23:21:12.073Z,6.25
2023-01-01T23:24:00.032Z,7.95
2023-01-01T23:26:48.285Z,6.30
2023-01-01T23:29:35.915Z,6.68
2023-01-01T23:32:23.906Z,7.28
2023-01-01T23:35:11.310Z,7.20
2023-01-01T23:37:59.490Z,6.80
2023-01-01T23:40:46.253Z,6.72
2023-01-01T23:43:33.724Z,6.28
2023-01-01T23:46:23.839Z,5.82
2023-01-01T23:49:10.675Z,6.47
2023-01-01T23:51:59.835Z,6.63
2023-01-01T23:54:46.551Z,7.03
2023-01-01T23:57:34.776Z,7.93
